TimeCST,TemperatureF,Dew PointF,Humidity,Sea Level PressureIn,VisibilityMPH,Wind Direction,Wind SpeedMPH,Gust SpeedMPH,PrecipitationIn,Events,Conditions,WindDirDegrees,DateUTC
12:54 AM,35.1,27.0,72,30.24,10.0,Calm,Calm,-,N/A,,Clear,0,2013-01-17 06:54:00
1:54 AM,36.0,28.0,73,30.26,10.0,Calm,Calm,-,N/A,,Clear,0,2013-01-17 07:54:00
2:54 AM,36.0,28.9,76,30.29,10.0,NNW,5.8,-,N/A,,Clear,330,2013-01-17 08:54:00
3:54 AM,35.1,28.9,78,30.31,10.0,NNW,4.6,-,N/A,,Clear,330,2013-01-17 09:54:00
4:54 AM,33.1,27.0,78,30.34,10.0,NW,5.8,-,N/A,,Clear,320,2013-01-17 10:54:00
5:54 AM,32.0,27.0,82,30.37,10.0,North,5.8,-,N/A,,Clear,350,2013-01-17 11:54:00
6:54 AM,32.0,27.0,82,30.40,10.0,NNW,8.1,-,N/A,,Clear,330,2013-01-17 12:54:00
7:54 AM,30.0,26.1,85,30.42,9.0,North,4.6,-,N/A,,Clear,360,2013-01-17 13:54:00
8:54 AM,32.0,25.0,75,30.45,10.0,North,9.2,-,N/A,,Clear,360,2013-01-17 14:54:00
9:54 AM,35.1,24.1,64,30.49,10.0,North,10.4,-,N/A,,Clear,350,2013-01-17 15:54:00
10:54 AM,37.0,21.0,52,30.50,10.0,NNW,5.8,-,N/A,,Clear,330,2013-01-17 16:54:00
11:54 AM,39.9,19.9,45,30.48,10.0,NE,3.5,-,N/A,,Clear,40,2013-01-17 17:54:00
12:54 PM,42.8,21.2,42,30.44,10.0,Calm,Calm,-,N/A,,Clear,0,2013-01-17 18:54:00
1:54 PM,46.0,21.9,39,30.43,10.0,Variable,3.5,-,N/A,,Clear,0,2013-01-17 19:54:00
2:54 PM,46.9,23.0,39,30.43,10.0,NNW,3.5,-,N/A,,Clear,330,2013-01-17 20:54:00
3:54 PM,48.0,25.0,41,30.43,10.0,Calm,Calm,-,N/A,,Clear,0,2013-01-17 21:54:00
4:54 PM,46.0,27.0,47,30.44,10.0,Calm,Calm,-,N/A,,Clear,0,2013-01-17 22:54:00
5:54 PM,39.9,26.1,58,30.44,10.0,Calm,Calm,-,N/A,,Clear,0,2013-01-17 23:54:00
6:54 PM,39.0,26.1,60,30.45,10.0,Calm,Calm,-,N/A,,Clear,0,2013-01-18 00:54:00
7:54 PM,35.1,26.1,70,30.45,10.0,Calm,Calm,-,N/A,,Clear,0,2013-01-18 01:54:00
8:54 PM,32.0,26.1,79,30.45,10.0,Calm,Calm,-,N/A,,Clear,0,2013-01-18 02:54:00
9:54 PM,33.1,27.0,78,30.43,10.0,Calm,Calm,-,N/A,,Clear,0,2013-01-18 03:54:00
10:54 PM,35.1,25.0,67,30.43,10.0,SSW,5.8,-,N/A,,Clear,200,2013-01-18 04:54:00
11:54 PM,36.0,26.1,67,30.41,10.0,SSW,8.1,-,N/A,,Clear,200,2013-01-18 05:54:00